sensor_id;sensor_type;location;lat;lon;timestamp;P1;durP1;ratioP1;P2;durP2;ratioP2
4895;SDS011;2463;49.948;8.472;2023-06-14T00:01:15;94.67;;;7.70;;
4895;SDS011;2463;49.948;8.472;2023-06-14T00:03:41;92.47;;;6.93;;
4895;SDS011;2463;49.948;8.472;2023-06-14T00:06:08;93.20;;;7.03;;
4895;SDS011;2463;49.948;8.472;2023-06-14T00:08:35;91.50;;;7.33;;
4895;SDS011;2463;49.948;8.472;2023-06-14T00:11:02;92.20;;;7.33;;
4895;SDS011;2463;49.948;8.472;2023-06-14T00:13:28;92.40;;;7.17;;
4895;SDS011;2463;49.948;8.472;2023-06-14T00:15:55;93.07;;;7.10;;
4895;SDS011;2463;49.948;8.472;2023-06-14T00:18:22;94.30;;;7.03;;
4895;SDS011;2463;49.948;8.472;2023-06-14T00:20:55;92.50;;;7.10;;
4895;SDS011;2463;49.948;8.472;2023-06-14T00:23:22;92.10;;;7.10;;
4895;SDS011;2463;49.948;8.472;2023-06-14T00:25:49;91.90;;;7.13;;
4895;SDS011;2463;49.948;8.472;2023-06-14T00:28:16;91.70;;;7.10;;
4895;SDS011;2463;49.948;8.472;2023-06-14T00:30:42;92.10;;;6.77;;
4895;SDS011;2463;49.948;8.472;2023-06-14T00:33:12;92.70;;;7.80;;
4895;SDS011;2463;49.948;8.472;2023-06-14T00:35:39;92.43;;;7.20;;
4895;SDS011;2463;49.948;8.472;2023-06-14T00:38:06;92.00;;;7.30;;
4895;SDS011;2463;49.948;8.472;2023-06-14T00:40:33;93.70;;;7.50;;
4895;SDS011;2463;49.948;8.472;2023-06-14T00:43:00;95.97;;;7.90;;
4895;SDS011;2463;49.948;8.472;2023-06-14T00:45:27;96.67;;;8.60;;
4895;SDS011;2463;49.948;8.472;2023-06-14T00:47:54;92.33;;;7.57;;
4895;SDS011;2463;49.948;8.472;2023-06-14T00:50:22;93.07;;;7.23;;
4895;SDS011;2463;49.948;8.472;2023-06-14T00:52:49;93.77;;;7.90;;
4895;SDS011;2463;49.948;8.472;2023-06-14T00:55:16;92.27;;;7.43;;
4895;SDS011;2463;49.948;8.472;2023-06-14T00:57:44;93.17;;;8.03;;
4895;SDS011;2463;49.948;8.472;2023-06-14T01:00:11;101.10;;;7.63;;
4895;SDS011;2463;49.948;8.472;2023-06-14T01:02:39;92.60;;;7.10;;
4895;SDS011;2463;49.948;8.472;2023-06-14T01:05:06;92.57;;;7.20;;
4895;SDS011;2463;49.948;8.472;2023-06-14T01:10:35;91.80;;;7.37;;
4895;SDS011;2463;49.948;8.472;2023-06-14T01:13:07;91.70;;;7.00;;
4895;SDS011;2463;49.948;8.472;2023-06-14T01:15:39;92.90;;;7.13;;
4895;SDS011;2463;49.948;8.472;2023-06-14T01:18:09;95.23;;;7.60;;
4895;SDS011;2463;49.948;8.472;2023-06-14T01:20:44;91.60;;;7.07;;
4895;SDS011;2463;49.948;8.472;2023-06-14T01:23:16;92.57;;;7.30;;
4895;SDS011;2463;49.948;8.472;2023-06-14T01:25:47;94.37;;;7.77;;
4895;SDS011;2463;49.948;8.472;2023-06-14T01:28:19;96.97;;;7.53;;
4895;SDS011;2463;49.948;8.472;2023-06-14T01:30:48;92.67;;;7.50;;
4895;SDS011;2463;49.948;8.472;2023-06-14T01:33:19;93.87;;;7.23;;
4895;SDS011;2463;49.948;8.472;2023-06-14T01:35:48;94.00;;;7.60;;
4895;SDS011;2463;49.948;8.472;2023-06-14T01:38:17;93.80;;;7.97;;
4895;SDS011;2463;49.948;8.472;2023-06-14T01:40:45;93.90;;;7.77;;
4895;SDS011;2463;49.948;8.472;2023-06-14T01:43:14;92.00;;;7.00;;
4895;SDS011;2463;49.948;8.472;2023-06-14T01:45:42;93.30;;;7.70;;
4895;SDS011;2463;49.948;8.472;2023-06-14T01:48:10;98.40;;;6.73;;
4895;SDS011;2463;49.948;8.472;2023-06-14T01:50:38;92.67;;;7.23;;
4895;SDS011;2463;49.948;8.472;2023-06-14T01:53:09;97.17;;;7.93;;
4895;SDS011;2463;49.948;8.472;2023-06-14T01:55:36;92.47;;;6.70;;
4895;SDS011;2463;49.948;8.472;2023-06-14T01:58:04;91.60;;;7.40;;
4895;SDS011;2463;49.948;8.472;2023-06-14T02:00:31;92.67;;;7.10;;
4895;SDS011;2463;49.948;8.472;2023-06-14T02:02:58;91.10;;;6.90;;
4895;SDS011;2463;49.948;8.472;2023-06-14T02:05:26;92.80;;;7.53;;
4895;SDS011;2463;49.948;8.472;2023-06-14T02:07:53;93.50;;;7.40;;
4895;SDS011;2463;49.948;8.472;2023-06-14T02:10:20;90.37;;;6.50;;
4895;SDS011;2463;49.948;8.472;2023-06-14T02:12:47;93.30;;;7.53;;
4895;SDS011;2463;49.948;8.472;2023-06-14T02:15:14;93.33;;;6.90;;
4895;SDS011;2463;49.948;8.472;2023-06-14T02:17:44;93.40;;;7.70;;
4895;SDS011;2463;49.948;8.472;2023-06-14T02:20:11;92.87;;;7.50;;
4895;SDS011;2463;49.948;8.472;2023-06-14T02:22:38;91.30;;;7.17;;
4895;SDS011;2463;49.948;8.472;2023-06-14T02:25:05;91.23;;;6.50;;
4895;SDS011;2463;49.948;8.472;2023-06-14T02:27:34;92.90;;;7.60;;
4895;SDS011;2463;49.948;8.472;2023-06-14T02:30:01;93.40;;;7.53;;
4895;SDS011;2463;49.948;8.472;2023-06-14T02:32:28;93.27;;;7.10;;
4895;SDS011;2463;49.948;8.472;2023-06-14T02:34:55;92.40;;;7.10;;
4895;SDS011;2463;49.948;8.472;2023-06-14T02:37:21;94.50;;;7.00;;
4895;SDS011;2463;49.948;8.472;2023-06-14T02:39:48;92.47;;;7.17;;
4895;SDS011;2463;49.948;8.472;2023-06-14T02:42:15;93.00;;;7.60;;
4895;SDS011;2463;49.948;8.472;2023-06-14T02:44:42;91.30;;;7.27;;
4895;SDS011;2463;49.948;8.472;2023-06-14T02:47:09;95.57;;;7.70;;
4895;SDS011;2463;49.948;8.472;2023-06-14T02:49:36;92.40;;;7.03;;
4895;SDS011;2463;49.948;8.472;2023-06-14T02:52:03;91.47;;;6.83;;
4895;SDS011;2463;49.948;8.472;2023-06-14T02:54:29;95.87;;;7.70;;
4895;SDS011;2463;49.948;8.472;2023-06-14T02:56:56;95.87;;;7.60;;
4895;SDS011;2463;49.948;8.472;2023-06-14T02:59:23;94.40;;;7.80;;
4895;SDS011;2463;49.948;8.472;2023-06-14T03:01:51;93.93;;;7.83;;
4895;SDS011;2463;49.948;8.472;2023-06-14T03:04:18;95.37;;;8.10;;
4895;SDS011;2463;49.948;8.472;2023-06-14T03:06:44;96.27;;;7.47;;
4895;SDS011;2463;49.948;8.472;2023-06-14T03:09:16;95.27;;;8.57;;
4895;SDS011;2463;49.948;8.472;2023-06-14T03:11:43;94.40;;;7.63;;
4895;SDS011;2463;49.948;8.472;2023-06-14T03:14:09;95.33;;;8.00;;
4895;SDS011;2463;49.948;8.472;2023-06-14T03:16:37;94.43;;;8.20;;
4895;SDS011;2463;49.948;8.472;2023-06-14T03:19:04;94.93;;;8.40;;
4895;SDS011;2463;49.948;8.472;2023-06-14T03:21:31;93.77;;;8.00;;
4895;SDS011;2463;49.948;8.472;2023-06-14T03:23:58;93.90;;;7.57;;
4895;SDS011;2463;49.948;8.472;2023-06-14T03:26:25;94.40;;;7.37;;
4895;SDS011;2463;49.948;8.472;2023-06-14T03:28:52;95.73;;;8.13;;
4895;SDS011;2463;49.948;8.472;2023-06-14T03:31:19;94.30;;;7.30;;
4895;SDS011;2463;49.948;8.472;2023-06-14T03:33:46;97.00;;;8.20;;
4895;SDS011;2463;49.948;8.472;2023-06-14T03:36:12;96.17;;;7.60;;
4895;SDS011;2463;49.948;8.472;2023-06-14T03:38:39;94.67;;;7.93;;
4895;SDS011;2463;49.948;8.472;2023-06-14T03:41:06;92.60;;;7.20;;
4895;SDS011;2463;49.948;8.472;2023-06-14T03:43:32;95.07;;;8.37;;
4895;SDS011;2463;49.948;8.472;2023-06-14T03:46:00;97.80;;;7.67;;
4895;SDS011;2463;49.948;8.472;2023-06-14T03:48:27;92.50;;;7.00;;
4895;SDS011;2463;49.948;8.472;2023-06-14T03:50:54;100.37;;;7.10;;
4895;SDS011;2463;49.948;8.472;2023-06-14T03:53:24;97.57;;;8.57;;
4895;SDS011;2463;49.948;8.472;2023-06-14T03:55:51;95.00;;;7.90;;
4895;SDS011;2463;49.948;8.472;2023-06-14T03:58:22;94.30;;;6.72;;
4895;SDS011;2463;49.948;8.472;2023-06-14T04:00:49;93.45;;;7.10;;
4895;SDS011;2463;49.948;8.472;2023-06-14T04:03:16;93.80;;;7.10;;
4895;SDS011;2463;49.948;8.472;2023-06-14T04:05:42;92.67;;;6.93;;
4895;SDS011;2463;49.948;8.472;2023-06-14T04:08:10;97.37;;;7.00;;
4895;SDS011;2463;49.948;8.472;2023-06-14T04:10:40;96.43;;;6.93;;
4895;SDS011;2463;49.948;8.472;2023-06-14T04:13:07;96.27;;;7.80;;
4895;SDS011;2463;49.948;8.472;2023-06-14T04:15:34;93.97;;;7.03;;
4895;SDS011;2463;49.948;8.472;2023-06-14T04:18:01;92.97;;;6.60;;
4895;SDS011;2463;49.948;8.472;2023-06-14T04:20:28;95.20;;;6.73;;
4895;SDS011;2463;49.948;8.472;2023-06-14T04:22:56;92.40;;;6.57;;
4895;SDS011;2463;49.948;8.472;2023-06-14T04:25:23;93.00;;;6.97;;
4895;SDS011;2463;49.948;8.472;2023-06-14T04:27:52;96.87;;;7.40;;
4895;SDS011;2463;49.948;8.472;2023-06-14T04:30:19;94.10;;;6.97;;
4895;SDS011;2463;49.948;8.472;2023-06-14T04:32:47;92.90;;;6.20;;
4895;SDS011;2463;49.948;8.472;2023-06-14T04:35:15;95.37;;;6.80;;
4895;SDS011;2463;49.948;8.472;2023-06-14T04:37:43;94.07;;;7.57;;
4895;SDS011;2463;49.948;8.472;2023-06-14T04:40:11;100.87;;;7.10;;
4895;SDS011;2463;49.948;8.472;2023-06-14T04:42:38;92.77;;;6.47;;
4895;SDS011;2463;49.948;8.472;2023-06-14T04:45:06;90.30;;;6.00;;
4895;SDS011;2463;49.948;8.472;2023-06-14T04:47:34;93.20;;;6.90;;
4895;SDS011;2463;49.948;8.472;2023-06-14T04:50:03;93.47;;;6.73;;
4895;SDS011;2463;49.948;8.472;2023-06-14T04:52:30;91.30;;;6.50;;
4895;SDS011;2463;49.948;8.472;2023-06-14T04:54:57;91.97;;;6.50;;
4895;SDS011;2463;49.948;8.472;2023-06-14T04:57:25;92.67;;;6.40;;
4895;SDS011;2463;49.948;8.472;2023-06-14T04:59:51;99.83;;;6.90;;
4895;SDS011;2463;49.948;8.472;2023-06-14T05:02:24;93.77;;;6.47;;
4895;SDS011;2463;49.948;8.472;2023-06-14T05:04:52;91.07;;;6.63;;
4895;SDS011;2463;49.948;8.472;2023-06-14T05:07:19;92.07;;;6.50;;
4895;SDS011;2463;49.948;8.472;2023-06-14T05:09:46;92.70;;;6.60;;
4895;SDS011;2463;49.948;8.472;2023-06-14T05:12:13;91.40;;;6.53;;
4895;SDS011;2463;49.948;8.472;2023-06-14T05:14:39;97.17;;;6.43;;
4895;SDS011;2463;49.948;8.472;2023-06-14T05:17:06;92.57;;;6.40;;
4895;SDS011;2463;49.948;8.472;2023-06-14T05:19:33;93.20;;;7.13;;
4895;SDS011;2463;49.948;8.472;2023-06-14T05:22:00;94.07;;;7.07;;
4895;SDS011;2463;49.948;8.472;2023-06-14T05:24:29;95.20;;;6.77;;
4895;SDS011;2463;49.948;8.472;2023-06-14T05:26:57;96.00;;;6.80;;
4895;SDS011;2463;49.948;8.472;2023-06-14T05:29:23;98.30;;;6.90;;
4895;SDS011;2463;49.948;8.472;2023-06-14T05:31:53;92.40;;;6.43;;
4895;SDS011;2463;49.948;8.472;2023-06-14T05:34:20;89.37;;;6.40;;
4895;SDS011;2463;49.948;8.472;2023-06-14T05:36:46;93.67;;;6.90;;
4895;SDS011;2463;49.948;8.472;2023-06-14T05:39:13;94.47;;;7.13;;
4895;SDS011;2463;49.948;8.472;2023-06-14T05:41:40;93.90;;;6.90;;
4895;SDS011;2463;49.948;8.472;2023-06-14T05:44:08;90.67;;;6.57;;
4895;SDS011;2463;49.948;8.472;2023-06-14T05:46:35;94.33;;;6.40;;
4895;SDS011;2463;49.948;8.472;2023-06-14T05:49:02;95.37;;;6.40;;
4895;SDS011;2463;49.948;8.472;2023-06-14T05:51:28;92.27;;;6.40;;
4895;SDS011;2463;49.948;8.472;2023-06-14T05:53:55;96.60;;;6.50;;
4895;SDS011;2463;49.948;8.472;2023-06-14T05:56:22;93.67;;;6.30;;
4895;SDS011;2463;49.948;8.472;2023-06-14T05:58:49;92.20;;;6.27;;
4895;SDS011;2463;49.948;8.472;2023-06-14T06:01:16;91.63;;;6.13;;
4895;SDS011;2463;49.948;8.472;2023-06-14T06:03:43;93.10;;;6.53;;
4895;SDS011;2463;49.948;8.472;2023-06-14T06:06:14;93.17;;;7.10;;
4895;SDS011;2463;49.948;8.472;2023-06-14T06:08:41;95.60;;;6.53;;
4895;SDS011;2463;49.948;8.472;2023-06-14T06:11:08;95.17;;;6.00;;
4895;SDS011;2463;49.948;8.472;2023-06-14T06:13:35;88.47;;;5.33;;
4895;SDS011;2463;49.948;8.472;2023-06-14T06:16:02;90.90;;;6.00;;
4895;SDS011;2463;49.948;8.472;2023-06-14T06:18:30;95.57;;;5.50;;
4895;SDS011;2463;49.948;8.472;2023-06-14T06:20:57;92.77;;;6.43;;
4895;SDS011;2463;49.948;8.472;2023-06-14T06:23:23;89.43;;;6.37;;
4895;SDS011;2463;49.948;8.472;2023-06-14T06:25:50;102.80;;;6.27;;
4895;SDS011;2463;49.948;8.472;2023-06-14T06:28:18;100.50;;;7.37;;
4895;SDS011;2463;49.948;8.472;2023-06-14T06:30:44;89.67;;;5.70;;
4895;SDS011;2463;49.948;8.472;2023-06-14T06:33:12;89.93;;;6.33;;
4895;SDS011;2463;49.948;8.472;2023-06-14T06:35:40;91.00;;;5.60;;
4895;SDS011;2463;49.948;8.472;2023-06-14T06:38:07;89.20;;;5.97;;
4895;SDS011;2463;49.948;8.472;2023-06-14T06:40:34;90.53;;;5.63;;
4895;SDS011;2463;49.948;8.472;2023-06-14T06:43:02;84.60;;;4.63;;
4895;SDS011;2463;49.948;8.472;2023-06-14T06:45:29;85.37;;;5.70;;
4895;SDS011;2463;49.948;8.472;2023-06-14T06:47:56;84.20;;;5.40;;
4895;SDS011;2463;49.948;8.472;2023-06-14T06:50:23;83.57;;;4.73;;
4895;SDS011;2463;49.948;8.472;2023-06-14T06:52:51;84.67;;;5.03;;
4895;SDS011;2463;49.948;8.472;2023-06-14T06:55:17;87.77;;;4.67;;
4895;SDS011;2463;49.948;8.472;2023-06-14T06:57:45;83.90;;;5.03;;
4895;SDS011;2463;49.948;8.472;2023-06-14T07:00:11;81.50;;;4.20;;
4895;SDS011;2463;49.948;8.472;2023-06-14T07:02:39;85.93;;;5.27;;
4895;SDS011;2463;49.948;8.472;2023-06-14T07:05:06;86.07;;;4.53;;
4895;SDS011;2463;49.948;8.472;2023-06-14T07:07:34;80.50;;;4.57;;
4895;SDS011;2463;49.948;8.472;2023-06-14T07:10:01;79.30;;;3.70;;
4895;SDS011;2463;49.948;8.472;2023-06-14T07:12:31;80.90;;;4.00;;
4895;SDS011;2463;49.948;8.472;2023-06-14T07:15:00;81.77;;;4.27;;
4895;SDS011;2463;49.948;8.472;2023-06-14T07:17:26;83.33;;;5.80;;
4895;SDS011;2463;49.948;8.472;2023-06-14T07:19:53;85.80;;;4.70;;
4895;SDS011;2463;49.948;8.472;2023-06-14T07:22:20;83.30;;;4.40;;
4895;SDS011;2463;49.948;8.472;2023-06-14T07:24:47;82.30;;;4.73;;
4895;SDS011;2463;49.948;8.472;2023-06-14T07:27:13;84.37;;;4.40;;
4895;SDS011;2463;49.948;8.472;2023-06-14T07:29:41;82.40;;;4.37;;
4895;SDS011;2463;49.948;8.472;2023-06-14T07:32:07;82.73;;;4.40;;
4895;SDS011;2463;49.948;8.472;2023-06-14T07:34:34;82.37;;;4.43;;
4895;SDS011;2463;49.948;8.472;2023-06-14T07:37:01;86.30;;;4.50;;
4895;SDS011;2463;49.948;8.472;2023-06-14T07:39:28;82.60;;;4.80;;
4895;SDS011;2463;49.948;8.472;2023-06-14T07:41:55;86.23;;;4.90;;
4895;SDS011;2463;49.948;8.472;2023-06-14T07:44:22;84.40;;;4.20;;
4895;SDS011;2463;49.948;8.472;2023-06-14T07:46:49;83.27;;;4.60;;
4895;SDS011;2463;49.948;8.472;2023-06-14T07:49:16;83.90;;;4.80;;
4895;SDS011;2463;49.948;8.472;2023-06-14T07:51:43;86.37;;;4.60;;
4895;SDS011;2463;49.948;8.472;2023-06-14T07:54:11;85.57;;;5.17;;
4895;SDS011;2463;49.948;8.472;2023-06-14T07:56:37;83.67;;;4.33;;
4895;SDS011;2463;49.948;8.472;2023-06-14T07:59:06;83.23;;;4.43;;
4895;SDS011;2463;49.948;8.472;2023-06-14T08:01:33;84.40;;;4.27;;
4895;SDS011;2463;49.948;8.472;2023-06-14T08:04:01;89.73;;;4.57;;
4895;SDS011;2463;49.948;8.472;2023-06-14T08:06:27;90.00;;;5.40;;
4895;SDS011;2463;49.948;8.472;2023-06-14T08:08:54;85.57;;;3.90;;
4895;SDS011;2463;49.948;8.472;2023-06-14T08:11:21;84.07;;;4.10;;
4895;SDS011;2463;49.948;8.472;2023-06-14T08:13:50;82.30;;;4.00;;
4895;SDS011;2463;49.948;8.472;2023-06-14T08:16:17;82.77;;;4.10;;
4895;SDS011;2463;49.948;8.472;2023-06-14T08:18:44;82.90;;;4.00;;
4895;SDS011;2463;49.948;8.472;2023-06-14T08:21:11;82.93;;;3.90;;
4895;SDS011;2463;49.948;8.472;2023-06-14T08:23:37;81.80;;;4.10;;
4895;SDS011;2463;49.948;8.472;2023-06-14T08:26:04;84.27;;;4.37;;
4895;SDS011;2463;49.948;8.472;2023-06-14T08:28:31;81.40;;;3.90;;
4895;SDS011;2463;49.948;8.472;2023-06-14T08:30:57;81.87;;;4.17;;
4895;SDS011;2463;49.948;8.472;2023-06-14T08:33:24;82.40;;;4.03;;
4895;SDS011;2463;49.948;8.472;2023-06-14T08:35:51;81.50;;;3.80;;
4895;SDS011;2463;49.948;8.472;2023-06-14T08:38:18;81.17;;;3.73;;
4895;SDS011;2463;49.948;8.472;2023-06-14T08:40:45;83.93;;;3.77;;
4895;SDS011;2463;49.948;8.472;2023-06-14T08:43:16;84.30;;;3.77;;
4895;SDS011;2463;49.948;8.472;2023-06-14T08:45:43;83.00;;;3.70;;
4895;SDS011;2463;49.948;8.472;2023-06-14T08:48:12;82.60;;;3.80;;
4895;SDS011;2463;49.948;8.472;2023-06-14T08:50:43;81.97;;;3.67;;
4895;SDS011;2463;49.948;8.472;2023-06-14T08:53:12;83.43;;;3.50;;
4895;SDS011;2463;49.948;8.472;2023-06-14T08:55:46;82.30;;;3.80;;
4895;SDS011;2463;49.948;8.472;2023-06-14T08:58:14;83.77;;;3.47;;
4895;SDS011;2463;49.948;8.472;2023-06-14T09:00:41;83.40;;;3.90;;
4895;SDS011;2463;49.948;8.472;2023-06-14T09:03:09;83.97;;;3.87;;
4895;SDS011;2463;49.948;8.472;2023-06-14T09:05:39;83.00;;;3.80;;
4895;SDS011;2463;49.948;8.472;2023-06-14T09:08:06;81.70;;;3.33;;
4895;SDS011;2463;49.948;8.472;2023-06-14T09:10:33;83.30;;;3.60;;
4895;SDS011;2463;49.948;8.472;2023-06-14T09:13:01;84.00;;;3.60;;
4895;SDS011;2463;49.948;8.472;2023-06-14T09:15:29;81.80;;;3.60;;
4895;SDS011;2463;49.948;8.472;2023-06-14T09:17:56;81.40;;;3.47;;
4895;SDS011;2463;49.948;8.472;2023-06-14T09:20:24;86.90;;;3.53;;
4895;SDS011;2463;49.948;8.472;2023-06-14T09:22:51;82.97;;;3.87;;
4895;SDS011;2463;49.948;8.472;2023-06-14T09:25:19;84.40;;;3.50;;
4895;SDS011;2463;49.948;8.472;2023-06-14T09:28:05;82.27;;;3.87;;
4895;SDS011;2463;49.948;8.472;2023-06-14T09:30:33;84.20;;;3.67;;
4895;SDS011;2463;49.948;8.472;2023-06-14T09:32:59;83.23;;;3.27;;
4895;SDS011;2463;49.948;8.472;2023-06-14T09:35:27;82.47;;;3.90;;
4895;SDS011;2463;49.948;8.472;2023-06-14T09:37:57;83.50;;;3.80;;
4895;SDS011;2463;49.948;8.472;2023-06-14T09:40:23;82.27;;;3.73;;
4895;SDS011;2463;49.948;8.472;2023-06-14T09:42:51;81.20;;;3.50;;
4895;SDS011;2463;49.948;8.472;2023-06-14T09:45:20;83.80;;;3.73;;
4895;SDS011;2463;49.948;8.472;2023-06-14T09:47:49;81.73;;;3.43;;
4895;SDS011;2463;49.948;8.472;2023-06-14T09:50:31;86.73;;;3.90;;
4895;SDS011;2463;49.948;8.472;2023-06-14T09:52:59;82.70;;;3.70;;
4895;SDS011;2463;49.948;8.472;2023-06-14T09:55:37;83.63;;;3.53;;
4895;SDS011;2463;49.948;8.472;2023-06-14T09:58:06;83.90;;;3.80;;
4895;SDS011;2463;49.948;8.472;2023-06-14T10:00:34;82.67;;;3.80;;
4895;SDS011;2463;49.948;8.472;2023-06-14T10:03:11;85.20;;;3.80;;
4895;SDS011;2463;49.948;8.472;2023-06-14T10:08:15;82.10;;;3.40;;
4895;SDS011;2463;49.948;8.472;2023-06-14T10:10:44;81.90;;;3.63;;
4895;SDS011;2463;49.948;8.472;2023-06-14T10:13:11;84.80;;;3.83;;
4895;SDS011;2463;49.948;8.472;2023-06-14T10:18:17;81.23;;;3.27;;
4895;SDS011;2463;49.948;8.472;2023-06-14T10:21:01;82.57;;;3.53;;
4895;SDS011;2463;49.948;8.472;2023-06-14T10:23:35;83.83;;;3.57;;
4895;SDS011;2463;49.948;8.472;2023-06-14T10:26:04;81.57;;;4.03;;
4895;SDS011;2463;49.948;8.472;2023-06-14T10:28:31;81.30;;;3.67;;
4895;SDS011;2463;49.948;8.472;2023-06-14T10:31:11;82.50;;;3.67;;
4895;SDS011;2463;49.948;8.472;2023-06-14T10:33:49;82.20;;;3.50;;
4895;SDS011;2463;49.948;8.472;2023-06-14T10:39:04;81.07;;;3.10;;
4895;SDS011;2463;49.948;8.472;2023-06-14T10:41:35;85.20;;;3.40;;
4895;SDS011;2463;49.948;8.472;2023-06-14T10:46:53;80.90;;;3.33;;
4895;SDS011;2463;49.948;8.472;2023-06-14T10:49:42;81.70;;;3.43;;
4895;SDS011;2463;49.948;8.472;2023-06-14T10:52:09;83.77;;;3.83;;
4895;SDS011;2463;49.948;8.472;2023-06-14T10:54:55;84.20;;;3.10;;
4895;SDS011;2463;49.948;8.472;2023-06-14T10:57:32;82.70;;;3.47;;
4895;SDS011;2463;49.948;8.472;2023-06-14T11:00:16;81.40;;;3.17;;
4895;SDS011;2463;49.948;8.472;2023-06-14T11:05:49;82.17;;;3.80;;
4895;SDS011;2463;49.948;8.472;2023-06-14T11:11:09;85.90;;;3.93;;
4895;SDS011;2463;49.948;8.472;2023-06-14T11:13:38;82.30;;;3.50;;
4895;SDS011;2463;49.948;8.472;2023-06-14T11:16:14;82.70;;;3.60;;
4895;SDS011;2463;49.948;8.472;2023-06-14T11:18:42;82.47;;;3.30;;
4895;SDS011;2463;49.948;8.472;2023-06-14T11:21:14;81.83;;;3.23;;
4895;SDS011;2463;49.948;8.472;2023-06-14T11:23:42;80.87;;;3.40;;
4895;SDS011;2463;49.948;8.472;2023-06-14T11:26:15;82.50;;;3.60;;
4895;SDS011;2463;49.948;8.472;2023-06-14T11:28:41;82.60;;;3.40;;
4895;SDS011;2463;49.948;8.472;2023-06-14T11:31:09;80.97;;;3.80;;
4895;SDS011;2463;49.948;8.472;2023-06-14T11:33:36;88.00;;;3.80;;
4895;SDS011;2463;49.948;8.472;2023-06-14T11:36:03;82.07;;;3.90;;
4895;SDS011;2463;49.948;8.472;2023-06-14T11:38:34;82.70;;;3.83;;
4895;SDS011;2463;49.948;8.472;2023-06-14T11:41:02;84.20;;;4.20;;
4895;SDS011;2463;49.948;8.472;2023-06-14T11:43:29;89.70;;;4.20;;
4895;SDS011;2463;49.948;8.472;2023-06-14T11:45:58;81.90;;;4.30;;
4895;SDS011;2463;49.948;8.472;2023-06-14T11:48:40;83.00;;;3.70;;
4895;SDS011;2463;49.948;8.472;2023-06-14T11:51:08;81.87;;;3.70;;
4895;SDS011;2463;49.948;8.472;2023-06-14T11:53:35;84.27;;;4.40;;
4895;SDS011;2463;49.948;8.472;2023-06-14T11:56:02;85.83;;;3.90;;
4895;SDS011;2463;49.948;8.472;2023-06-14T11:58:29;85.63;;;3.57;;
4895;SDS011;2463;49.948;8.472;2023-06-14T12:00:56;84.20;;;3.97;;
4895;SDS011;2463;49.948;8.472;2023-06-14T12:03:24;83.77;;;3.80;;
4895;SDS011;2463;49.948;8.472;2023-06-14T12:08:35;83.17;;;3.93;;
4895;SDS011;2463;49.948;8.472;2023-06-14T12:11:12;82.20;;;3.67;;
4895;SDS011;2463;49.948;8.472;2023-06-14T12:13:43;81.13;;;3.60;;
4895;SDS011;2463;49.948;8.472;2023-06-14T12:16:10;80.70;;;3.20;;
4895;SDS011;2463;49.948;8.472;2023-06-14T12:18:39;82.40;;;3.90;;
4895;SDS011;2463;49.948;8.472;2023-06-14T12:21:07;82.20;;;3.80;;
4895;SDS011;2463;49.948;8.472;2023-06-14T12:26:12;82.07;;;3.90;;
4895;SDS011;2463;49.948;8.472;2023-06-14T12:28:40;82.50;;;3.67;;
4895;SDS011;2463;49.948;8.472;2023-06-14T12:31:08;82.07;;;3.80;;
4895;SDS011;2463;49.948;8.472;2023-06-14T12:33:36;82.17;;;3.40;;
4895;SDS011;2463;49.948;8.472;2023-06-14T12:36:03;87.63;;;3.97;;
4895;SDS011;2463;49.948;8.472;2023-06-14T12:38:32;82.60;;;3.73;;
4895;SDS011;2463;49.948;8.472;2023-06-14T12:40:59;83.37;;;3.70;;
4895;SDS011;2463;49.948;8.472;2023-06-14T12:43:27;81.27;;;3.60;;
4895;SDS011;2463;49.948;8.472;2023-06-14T12:45:54;82.80;;;3.80;;
4895;SDS011;2463;49.948;8.472;2023-06-14T12:48:21;84.27;;;4.00;;
4895;SDS011;2463;49.948;8.472;2023-06-14T12:50:48;82.00;;;4.17;;
4895;SDS011;2463;49.948;8.472;2023-06-14T12:53:15;88.60;;;4.33;;
4895;SDS011;2463;49.948;8.472;2023-06-14T12:55:42;83.33;;;3.83;;
4895;SDS011;2463;49.948;8.472;2023-06-14T12:58:08;83.90;;;4.40;;
4895;SDS011;2463;49.948;8.472;2023-06-14T13:00:36;86.60;;;4.80;;
4895;SDS011;2463;49.948;8.472;2023-06-14T13:03:02;83.47;;;4.20;;
4895;SDS011;2463;49.948;8.472;2023-06-14T13:05:30;83.23;;;3.73;;
4895;SDS011;2463;49.948;8.472;2023-06-14T13:08:00;81.47;;;3.97;;
4895;SDS011;2463;49.948;8.472;2023-06-14T13:10:27;82.07;;;3.43;;
4895;SDS011;2463;49.948;8.472;2023-06-14T13:12:54;87.63;;;4.30;;
4895;SDS011;2463;49.948;8.472;2023-06-14T13:15:21;87.57;;;4.40;;
4895;SDS011;2463;49.948;8.472;2023-06-14T13:17:47;88.43;;;4.47;;
4895;SDS011;2463;49.948;8.472;2023-06-14T13:20:14;82.20;;;3.73;;
4895;SDS011;2463;49.948;8.472;2023-06-14T13:22:46;82.47;;;3.90;;
4895;SDS011;2463;49.948;8.472;2023-06-14T13:25:12;86.03;;;4.00;;
4895;SDS011;2463;49.948;8.472;2023-06-14T13:27:39;90.27;;;4.47;;
4895;SDS011;2463;49.948;8.472;2023-06-14T13:30:06;84.57;;;4.60;;
4895;SDS011;2463;49.948;8.472;2023-06-14T13:32:33;83.80;;;4.30;;
4895;SDS011;2463;49.948;8.472;2023-06-14T13:35:00;83.20;;;4.20;;
4895;SDS011;2463;49.948;8.472;2023-06-14T13:37:27;90.00;;;5.03;;
4895;SDS011;2463;49.948;8.472;2023-06-14T13:39:54;84.43;;;4.80;;
4895;SDS011;2463;49.948;8.472;2023-06-14T13:42:21;81.30;;;3.70;;
4895;SDS011;2463;49.948;8.472;2023-06-14T13:44:49;82.60;;;3.90;;
4895;SDS011;2463;49.948;8.472;2023-06-14T13:47:17;81.10;;;3.57;;
4895;SDS011;2463;49.948;8.472;2023-06-14T13:49:44;88.10;;;4.60;;
4895;SDS011;2463;49.948;8.472;2023-06-14T13:52:11;83.07;;;4.20;;
4895;SDS011;2463;49.948;8.472;2023-06-14T13:54:39;83.30;;;3.90;;
4895;SDS011;2463;49.948;8.472;2023-06-14T13:57:06;85.97;;;4.30;;
4895;SDS011;2463;49.948;8.472;2023-06-14T13:59:33;82.90;;;4.30;;
4895;SDS011;2463;49.948;8.472;2023-06-14T14:02:00;83.27;;;4.40;;
4895;SDS011;2463;49.948;8.472;2023-06-14T14:04:28;84.03;;;4.43;;
4895;SDS011;2463;49.948;8.472;2023-06-14T14:06:55;87.20;;;4.30;;
4895;SDS011;2463;49.948;8.472;2023-06-14T14:09:21;83.20;;;4.30;;
4895;SDS011;2463;49.948;8.472;2023-06-14T14:11:48;84.17;;;4.63;;
4895;SDS011;2463;49.948;8.472;2023-06-14T14:14:15;83.80;;;4.20;;
4895;SDS011;2463;49.948;8.472;2023-06-14T14:16:41;86.70;;;4.00;;
4895;SDS011;2463;49.948;8.472;2023-06-14T14:19:08;83.97;;;4.37;;
4895;SDS011;2463;49.948;8.472;2023-06-14T14:21:35;83.50;;;4.00;;
4895;SDS011;2463;49.948;8.472;2023-06-14T14:24:02;82.90;;;4.60;;
4895;SDS011;2463;49.948;8.472;2023-06-14T14:26:29;98.13;;;4.20;;
4895;SDS011;2463;49.948;8.472;2023-06-14T14:28:56;85.93;;;4.00;;
4895;SDS011;2463;49.948;8.472;2023-06-14T14:31:23;84.17;;;3.90;;
4895;SDS011;2463;49.948;8.472;2023-06-14T14:33:49;82.30;;;3.50;;
4895;SDS011;2463;49.948;8.472;2023-06-14T14:36:16;83.43;;;4.10;;
4895;SDS011;2463;49.948;8.472;2023-06-14T14:38:43;80.53;;;3.50;;
4895;SDS011;2463;49.948;8.472;2023-06-14T14:41:10;90.33;;;4.27;;
4895;SDS011;2463;49.948;8.472;2023-06-14T14:43:37;81.37;;;3.80;;
4895;SDS011;2463;49.948;8.472;2023-06-14T14:46:03;80.67;;;3.60;;
4895;SDS011;2463;49.948;8.472;2023-06-14T14:48:30;84.83;;;3.70;;
4895;SDS011;2463;49.948;8.472;2023-06-14T14:50:57;90.93;;;4.30;;
4895;SDS011;2463;49.948;8.472;2023-06-14T14:53:24;82.33;;;3.90;;
4895;SDS011;2463;49.948;8.472;2023-06-14T14:55:50;82.07;;;3.50;;
4895;SDS011;2463;49.948;8.472;2023-06-14T14:58:17;81.87;;;3.70;;
4895;SDS011;2463;49.948;8.472;2023-06-14T15:00:44;83.97;;;4.00;;
4895;SDS011;2463;49.948;8.472;2023-06-14T15:03:12;81.40;;;3.67;;
4895;SDS011;2463;49.948;8.472;2023-06-14T15:05:39;86.20;;;4.20;;
4895;SDS011;2463;49.948;8.472;2023-06-14T15:08:06;99.53;;;4.80;;
4895;SDS011;2463;49.948;8.472;2023-06-14T15:10:42;86.03;;;4.37;;
4895;SDS011;2463;49.948;8.472;2023-06-14T15:13:10;97.43;;;4.23;;
4895;SDS011;2463;49.948;8.472;2023-06-14T15:15:37;85.13;;;4.17;;
4895;SDS011;2463;49.948;8.472;2023-06-14T15:18:03;81.97;;;3.70;;
4895;SDS011;2463;49.948;8.472;2023-06-14T15:20:30;92.53;;;4.30;;
4895;SDS011;2463;49.948;8.472;2023-06-14T15:22:57;84.70;;;4.90;;
4895;SDS011;2463;49.948;8.472;2023-06-14T15:25:28;82.40;;;3.87;;
4895;SDS011;2463;49.948;8.472;2023-06-14T15:27:56;84.67;;;4.13;;
4895;SDS011;2463;49.948;8.472;2023-06-14T15:30:23;83.70;;;3.80;;